Saint-Jude, Canada
Current Conditions -  °F | °C
As of 3:00 AM on Friday 24 Oct 2014 (Local Time) from CYHU Reporting Station
Overcast Overcast  
Wind Chill: 41°   Ceiling: 3000
Heat Index: 46°   Visibility: 9mi
Dew Point: 39°   Wind: 12mph
Humidity: 76%   Direction: 30°NNE
Pressure: 29.89"   Gusts: NA
Location:  45.77°N, 72.98°W
Report Text: CYHU 240700Z AUTO 03010KT 9SM OVC030 08/04 A2989 RMK SLP123
Loading
Personal Weather Stations






























Interactive Weather Map
Tropical Storm Tracking
New forecast layout! Learn more

10-Day Weather Forecast

Advertisements
Track Severe Weather on mobile